sensor_id;sensor_type;location;lat;lon;timestamp;pressure;altitude;pressure_sealevel;temperature;humidity
47524;BME280;33253;42.144;25.884;2023-08-24T00:02:05;100352.75;;;26.00;64.12
47524;BME280;33253;42.144;25.884;2023-08-24T00:04:32;100355.50;;;25.66;64.29
47524;BME280;33253;42.144;25.884;2023-08-24T00:06:57;100376.25;;;25.48;65.82
47524;BME280;33253;42.144;25.884;2023-08-24T00:09:23;100356.59;;;25.23;67.80
47524;BME280;33253;42.144;25.884;2023-08-24T00:11:48;100334.19;;;25.03;68.38
47524;BME280;33253;42.144;25.884;2023-08-24T00:14:14;100363.63;;;25.24;67.64
47524;BME280;33253;42.144;25.884;2023-08-24T00:16:40;100354.66;;;25.29;65.84
47524;BME280;33253;42.144;25.884;2023-08-24T00:19:07;100354.31;;;25.43;64.14
47524;BME280;33253;42.144;25.884;2023-08-24T00:21:32;100343.59;;;25.49;64.89
47524;BME280;33253;42.144;25.884;2023-08-24T00:23:58;100344.75;;;25.39;64.50
47524;BME280;33253;42.144;25.884;2023-08-24T00:26:25;100347.88;;;25.19;65.79
47524;BME280;33253;42.144;25.884;2023-08-24T00:28:50;100361.84;;;25.24;67.13
47524;BME280;33253;42.144;25.884;2023-08-24T00:31:17;100347.25;;;25.09;68.08
47524;BME280;33253;42.144;25.884;2023-08-24T00:33:42;100352.09;;;24.92;67.57
47524;BME280;33253;42.144;25.884;2023-08-24T00:36:08;100371.75;;;24.78;65.09
47524;BME280;33253;42.144;25.884;2023-08-24T00:38:33;100369.16;;;24.36;65.96
47524;BME280;33253;42.144;25.884;2023-08-24T00:40:59;100291.59;;;23.62;66.38
47524;BME280;33253;42.144;25.884;2023-08-24T00:43:25;100342.22;;;23.78;67.69
47524;BME280;33253;42.144;25.884;2023-08-24T00:45:51;100337.78;;;23.80;66.25
47524;BME280;33253;42.144;25.884;2023-08-24T00:48:18;100296.69;;;23.69;65.65
47524;BME280;33253;42.144;25.884;2023-08-24T00:50:44;100371.47;;;24.11;65.58
47524;BME280;33253;42.144;25.884;2023-08-24T00:53:10;100342.91;;;23.86;66.65
47524;BME280;33253;42.144;25.884;2023-08-24T00:55:35;100270.16;;;23.33;67.60
47524;BME280;33253;42.144;25.884;2023-08-24T00:58:02;100360.59;;;23.81;66.86
47524;BME280;33253;42.144;25.884;2023-08-24T01:00:28;100346.41;;;23.88;66.69
47524;BME280;33253;42.144;25.884;2023-08-24T01:02:54;100339.22;;;23.98;67.11
47524;BME280;33253;42.144;25.884;2023-08-24T01:05:19;100331.88;;;24.12;66.98
47524;BME280;33253;42.144;25.884;2023-08-24T01:07:45;100330.03;;;24.16;68.40
47524;BME280;33253;42.144;25.884;2023-08-24T01:10:12;100347.44;;;24.25;68.69
47524;BME280;33253;42.144;25.884;2023-08-24T01:15:37;100350.22;;;24.17;71.65
47524;BME280;33253;42.144;25.884;2023-08-24T01:18:08;100323.00;;;24.16;71.67
47524;BME280;33253;42.144;25.884;2023-08-24T01:20:37;100271.34;;;24.08;70.63
47524;BME280;33253;42.144;25.884;2023-08-24T01:23:36;100321.84;;;24.69;68.70
47524;BME280;33253;42.144;25.884;2023-08-24T01:26:09;100307.47;;;24.81;67.56
47524;BME280;33253;42.144;25.884;2023-08-24T01:28:36;100302.78;;;24.92;66.77
47524;BME280;33253;42.144;25.884;2023-08-24T01:31:04;100314.03;;;25.00;67.60
47524;BME280;33253;42.144;25.884;2023-08-24T01:33:29;100309.72;;;24.96;67.57
47524;BME280;33253;42.144;25.884;2023-08-24T01:35:55;100301.88;;;24.93;68.79
47524;BME280;33253;42.144;25.884;2023-08-24T01:38:20;100306.59;;;24.80;69.57
47524;BME280;33253;42.144;25.884;2023-08-24T01:41:19;100323.56;;;24.70;71.39
47524;BME280;33253;42.144;25.884;2023-08-24T01:43:52;100303.75;;;24.50;71.75
47524;BME280;33253;42.144;25.884;2023-08-24T01:46:19;100293.22;;;24.50;71.58
47524;BME280;33253;42.144;25.884;2023-08-24T01:48:46;100313.06;;;24.67;70.89
47524;BME280;33253;42.144;25.884;2023-08-24T01:51:14;100284.13;;;24.62;70.67
47524;BME280;33253;42.144;25.884;2023-08-24T01:53:40;100293.41;;;24.80;70.76
47524;BME280;33253;42.144;25.884;2023-08-24T01:56:15;100290.94;;;24.33;72.48
47524;BME280;33253;42.144;25.884;2023-08-24T01:58:40;100285.44;;;23.61;75.86
47524;BME280;33253;42.144;25.884;2023-08-24T02:01:07;100310.84;;;23.65;76.09
47524;BME280;33253;42.144;25.884;2023-08-24T02:03:33;100295.91;;;23.64;76.02
47524;BME280;33253;42.144;25.884;2023-08-24T02:05:58;100284.53;;;23.62;76.09
47524;BME280;33253;42.144;25.884;2023-08-24T02:08:24;100289.75;;;23.65;76.22
47524;BME280;33253;42.144;25.884;2023-08-24T02:10:50;100286.63;;;23.45;75.01
47524;BME280;33253;42.144;25.884;2023-08-24T02:13:15;100297.31;;;23.37;73.19
47524;BME280;33253;42.144;25.884;2023-08-24T02:15:41;100296.78;;;23.18;73.90
47524;BME280;33253;42.144;25.884;2023-08-24T02:18:07;100303.22;;;23.00;74.62
47524;BME280;33253;42.144;25.884;2023-08-24T02:20:37;100247.72;;;22.60;74.78
47524;BME280;33253;42.144;25.884;2023-08-24T02:23:03;100285.66;;;22.99;74.00
47524;BME280;33253;42.144;25.884;2023-08-24T02:25:29;100297.47;;;23.27;73.15
47524;BME280;33253;42.144;25.884;2023-08-24T02:27:54;100291.03;;;23.44;72.12
47524;BME280;33253;42.144;25.884;2023-08-24T02:30:19;100297.34;;;23.35;74.70
47524;BME280;33253;42.144;25.884;2023-08-24T02:32:45;100292.50;;;23.09;73.86
47524;BME280;33253;42.144;25.884;2023-08-24T02:35:10;100290.81;;;23.06;73.53
47524;BME280;33253;42.144;25.884;2023-08-24T02:37:36;100286.44;;;23.05;73.53
47524;BME280;33253;42.144;25.884;2023-08-24T02:40:03;100240.28;;;22.86;73.46
47524;BME280;33253;42.144;25.884;2023-08-24T02:42:30;100290.38;;;23.31;73.17
47524;BME280;33253;42.144;25.884;2023-08-24T02:44:57;100298.13;;;23.39;72.85
47524;BME280;33253;42.144;25.884;2023-08-24T02:47:22;100289.50;;;23.32;72.62
47524;BME280;33253;42.144;25.884;2023-08-24T02:49:47;100292.53;;;23.57;72.22
47524;BME280;33253;42.144;25.884;2023-08-24T02:52:13;100277.53;;;23.61;71.26
47524;BME280;33253;42.144;25.884;2023-08-24T02:54:38;100268.63;;;23.23;72.26
47524;BME280;33253;42.144;25.884;2023-08-24T02:57:04;100283.31;;;23.35;71.59
47524;BME280;33253;42.144;25.884;2023-08-24T02:59:29;100286.72;;;23.40;71.31
47524;BME280;33253;42.144;25.884;2023-08-24T03:01:55;100285.84;;;23.39;71.09
47524;BME280;33253;42.144;25.884;2023-08-24T03:04:20;100293.63;;;22.94;74.05
47524;BME280;33253;42.144;25.884;2023-08-24T03:06:46;100243.75;;;22.33;74.57
47524;BME280;33253;42.144;25.884;2023-08-24T03:09:11;100286.38;;;22.55;74.14
47524;BME280;33253;42.144;25.884;2023-08-24T03:11:37;100218.50;;;22.20;74.00
47524;BME280;33253;42.144;25.884;2023-08-24T03:14:03;100303.13;;;22.50;75.51
47524;BME280;33253;42.144;25.884;2023-08-24T03:16:29;100283.13;;;22.39;74.99
47524;BME280;33253;42.144;25.884;2023-08-24T03:18:54;100291.44;;;22.69;73.74
47524;BME280;33253;42.144;25.884;2023-08-24T03:21:20;100295.53;;;22.87;73.67
47524;BME280;33253;42.144;25.884;2023-08-24T03:23:45;100296.06;;;23.06;75.03
47524;BME280;33253;42.144;25.884;2023-08-24T03:26:11;100308.22;;;23.14;76.01
47524;BME280;33253;42.144;25.884;2023-08-24T03:28:37;100285.53;;;23.08;75.25
47524;BME280;33253;42.144;25.884;2023-08-24T03:33:28;100300.13;;;23.27;75.02
47524;BME280;33253;42.144;25.884;2023-08-24T03:35:54;100236.75;;;22.85;75.47
47524;BME280;33253;42.144;25.884;2023-08-24T03:38:19;100300.31;;;23.17;75.72
47524;BME280;33253;42.144;25.884;2023-08-24T03:40:45;100323.19;;;23.13;75.95
47524;BME280;33253;42.144;25.884;2023-08-24T03:43:10;100295.22;;;23.06;75.72
47524;BME280;33253;42.144;25.884;2023-08-24T03:45:36;100325.56;;;23.29;73.71
47524;BME280;33253;42.144;25.884;2023-08-24T03:48:02;100298.59;;;23.16;72.19
47524;BME280;33253;42.144;25.884;2023-08-24T03:50:27;100299.59;;;23.07;71.69
47524;BME280;33253;42.144;25.884;2023-08-24T03:52:53;100323.44;;;22.96;72.53
47524;BME280;33253;42.144;25.884;2023-08-24T03:55:20;100325.47;;;22.80;72.79
47524;BME280;33253;42.144;25.884;2023-08-24T03:57:45;100332.53;;;22.76;72.45
47524;BME280;33253;42.144;25.884;2023-08-24T04:00:11;100279.66;;;22.36;72.61
47524;BME280;33253;42.144;25.884;2023-08-24T04:02:43;100345.69;;;22.76;72.32
47524;BME280;33253;42.144;25.884;2023-08-24T04:05:09;100353.63;;;22.75;72.84
47524;BME280;33253;42.144;25.884;2023-08-24T04:07:34;100327.59;;;22.55;73.28
47524;BME280;33253;42.144;25.884;2023-08-24T04:10:02;100346.88;;;22.55;74.13
47524;BME280;33253;42.144;25.884;2023-08-24T04:12:30;100299.81;;;22.34;73.45
47524;BME280;33253;42.144;25.884;2023-08-24T04:14:57;100338.81;;;22.69;73.20
47524;BME280;33253;42.144;25.884;2023-08-24T04:17:23;100315.91;;;22.73;72.27
47524;BME280;33253;42.144;25.884;2023-08-24T04:19:49;100350.75;;;22.90;72.03
47524;BME280;33253;42.144;25.884;2023-08-24T04:22:14;100342.97;;;22.84;72.50
47524;BME280;33253;42.144;25.884;2023-08-24T04:24:40;100343.66;;;22.94;71.94
47524;BME280;33253;42.144;25.884;2023-08-24T04:27:05;100338.94;;;23.16;70.71
47524;BME280;33253;42.144;25.884;2023-08-24T04:29:32;100343.34;;;23.13;71.71
47524;BME280;33253;42.144;25.884;2023-08-24T04:32:19;100330.94;;;22.66;72.49
47524;BME280;33253;42.144;25.884;2023-08-24T04:34:44;100280.69;;;22.24;73.87
47524;BME280;33253;42.144;25.884;2023-08-24T04:37:09;100346.47;;;22.82;73.26
47524;BME280;33253;42.144;25.884;2023-08-24T04:39:35;100327.06;;;22.90;72.34
47524;BME280;33253;42.144;25.884;2023-08-24T04:42:00;100336.41;;;23.08;71.73
47524;BME280;33253;42.144;25.884;2023-08-24T04:44:27;100345.88;;;23.22;71.30
47524;BME280;33253;42.144;25.884;2023-08-24T04:46:53;100348.44;;;23.26;70.90
47524;BME280;33253;42.144;25.884;2023-08-24T04:49:18;100354.31;;;23.41;70.80
47524;BME280;33253;42.144;25.884;2023-08-24T04:51:45;100361.25;;;23.45;70.64
47524;BME280;33253;42.144;25.884;2023-08-24T04:54:10;100352.72;;;23.32;70.91
47524;BME280;33253;42.144;25.884;2023-08-24T04:56:35;100293.59;;;22.97;71.40
47524;BME280;33253;42.144;25.884;2023-08-24T04:59:01;100361.25;;;23.47;70.75
47524;BME280;33253;42.144;25.884;2023-08-24T05:01:28;100362.63;;;23.68;70.17
47524;BME280;33253;42.144;25.884;2023-08-24T05:03:55;100291.91;;;23.45;69.77
47524;BME280;33253;42.144;25.884;2023-08-24T05:06:21;100362.94;;;23.98;68.85
47524;BME280;33253;42.144;25.884;2023-08-24T05:08:47;100312.34;;;23.77;69.82
47524;BME280;33253;42.144;25.884;2023-08-24T05:11:19;100366.28;;;24.06;70.76
47524;BME280;33253;42.144;25.884;2023-08-24T05:13:45;100364.09;;;23.83;71.48
47524;BME280;33253;42.144;25.884;2023-08-24T05:16:13;100349.91;;;23.88;71.71
47524;BME280;33253;42.144;25.884;2023-08-24T05:18:39;100348.81;;;24.00;71.29
47524;BME280;33253;42.144;25.884;2023-08-24T05:21:04;100338.13;;;24.08;71.18
47524;BME280;33253;42.144;25.884;2023-08-24T05:23:33;100359.63;;;24.30;70.06
47524;BME280;33253;42.144;25.884;2023-08-24T05:26:00;100341.78;;;24.42;68.87
47524;BME280;33253;42.144;25.884;2023-08-24T05:28:27;100364.69;;;24.39;69.50
47524;BME280;33253;42.144;25.884;2023-08-24T05:30:53;100363.78;;;24.41;69.91
47524;BME280;33253;42.144;25.884;2023-08-24T05:33:20;100355.78;;;24.45;69.87
47524;BME280;33253;42.144;25.884;2023-08-24T05:35:46;100345.00;;;24.54;69.17
47524;BME280;33253;42.144;25.884;2023-08-24T05:38:12;100359.59;;;24.73;68.64
47524;BME280;33253;42.144;25.884;2023-08-24T05:40:38;100349.69;;;24.82;68.06
47524;BME280;33253;42.144;25.884;2023-08-24T05:43:04;100299.03;;;24.66;67.67
47524;BME280;33253;42.144;25.884;2023-08-24T05:45:30;100270.78;;;24.68;66.80
47524;BME280;33253;42.144;25.884;2023-08-24T05:47:55;100335.59;;;25.18;66.21
47524;BME280;33253;42.144;25.884;2023-08-24T05:50:21;100349.91;;;25.09;67.22
47524;BME280;33253;42.144;25.884;2023-08-24T05:52:47;100353.22;;;25.16;67.64
47524;BME280;33253;42.144;25.884;2023-08-24T05:55:12;100344.50;;;25.14;67.91
47524;BME280;33253;42.144;25.884;2023-08-24T05:57:38;100354.88;;;25.22;66.68
47524;BME280;33253;42.144;25.884;2023-08-24T06:00:05;100364.16;;;25.38;73.21
47524;BME280;33253;42.144;25.884;2023-08-24T06:02:51;100346.22;;;25.51;72.14
47524;BME280;33253;42.144;25.884;2023-08-24T06:05:16;100351.06;;;25.66;71.77
47524;BME280;33253;42.144;25.884;2023-08-24T06:07:44;100352.38;;;25.83;70.35
47524;BME280;33253;42.144;25.884;2023-08-24T06:10:11;100334.75;;;25.83;69.16
47524;BME280;33253;42.144;25.884;2023-08-24T06:12:37;100357.00;;;26.08;66.49
47524;BME280;33253;42.144;25.884;2023-08-24T06:15:04;100354.69;;;26.25;64.98
47524;BME280;33253;42.144;25.884;2023-08-24T06:17:30;100354.19;;;26.42;64.05
47524;BME280;33253;42.144;25.884;2023-08-24T06:19:55;100284.34;;;26.18;64.83
47524;BME280;33253;42.144;25.884;2023-08-24T06:22:21;100354.59;;;26.58;64.24
47524;BME280;33253;42.144;25.884;2023-08-24T06:24:46;100340.38;;;26.61;64.93
47524;BME280;33253;42.144;25.884;2023-08-24T06:27:12;100358.19;;;26.84;65.25
47524;BME280;33253;42.144;25.884;2023-08-24T06:29:37;100361.53;;;26.91;64.81
47524;BME280;33253;42.144;25.884;2023-08-24T06:32:03;100357.16;;;26.90;66.15
47524;BME280;33253;42.144;25.884;2023-08-24T06:34:28;100360.75;;;26.87;64.75
47524;BME280;33253;42.144;25.884;2023-08-24T06:36:54;100321.44;;;26.75;63.80
47524;BME280;33253;42.144;25.884;2023-08-24T06:39:19;100365.59;;;27.01;64.18
47524;BME280;33253;42.144;25.884;2023-08-24T06:41:45;100361.84;;;27.08;63.00
47524;BME280;33253;42.144;25.884;2023-08-24T06:44:11;100364.34;;;27.13;62.44
47524;BME280;33253;42.144;25.884;2023-08-24T06:46:36;100346.72;;;27.12;62.45
47524;BME280;33253;42.144;25.884;2023-08-24T06:49:02;100361.78;;;27.35;63.77
47524;BME280;33253;42.144;25.884;2023-08-24T06:51:28;100353.56;;;27.44;59.36
47524;BME280;33253;42.144;25.884;2023-08-24T06:53:54;100333.63;;;27.33;60.40
47524;BME280;33253;42.144;25.884;2023-08-24T06:56:19;100368.13;;;27.58;58.62
47524;BME280;33253;42.144;25.884;2023-08-24T06:58:47;100359.34;;;27.56;59.32
47524;BME280;33253;42.144;25.884;2023-08-24T07:01:13;100354.66;;;27.64;59.83
47524;BME280;33253;42.144;25.884;2023-08-24T07:03:38;100355.56;;;27.63;57.77
47524;BME280;33253;42.144;25.884;2023-08-24T07:06:06;100365.69;;;27.77;56.84
47524;BME280;33253;42.144;25.884;2023-08-24T07:08:37;100359.31;;;27.83;56.56
47524;BME280;33253;42.144;25.884;2023-08-24T07:11:03;100350.13;;;27.91;57.90
47524;BME280;33253;42.144;25.884;2023-08-24T07:13:29;100352.28;;;28.05;59.67
47524;BME280;33253;42.144;25.884;2023-08-24T07:15:54;100337.97;;;28.09;58.16
47524;BME280;33253;42.144;25.884;2023-08-24T07:18:20;100361.16;;;28.28;56.58
47524;BME280;33253;42.144;25.884;2023-08-24T07:20:47;100260.63;;;27.73;54.45
47524;BME280;33253;42.144;25.884;2023-08-24T07:23:12;100345.41;;;28.23;54.17
47524;BME280;33253;42.144;25.884;2023-08-24T07:25:38;100351.28;;;28.32;53.96
47524;BME280;33253;42.144;25.884;2023-08-24T07:28:04;100278.78;;;28.07;53.15
47524;BME280;33253;42.144;25.884;2023-08-24T07:30:31;100320.53;;;28.48;52.14
47524;BME280;33253;42.144;25.884;2023-08-24T07:32:56;100337.00;;;28.80;51.03
47524;BME280;33253;42.144;25.884;2023-08-24T07:35:22;100337.91;;;29.01;51.05
47524;BME280;33253;42.144;25.884;2023-08-24T07:37:50;100265.34;;;28.79;51.48
47524;BME280;33253;42.144;25.884;2023-08-24T07:40:16;100335.88;;;29.29;51.17
47524;BME280;33253;42.144;25.884;2023-08-24T07:42:48;100331.47;;;29.28;50.30
47524;BME280;33253;42.144;25.884;2023-08-24T07:45:16;100339.59;;;29.45;49.21
47524;BME280;33253;42.144;25.884;2023-08-24T07:47:43;100323.38;;;29.51;49.77
47524;BME280;33253;42.144;25.884;2023-08-24T07:50:09;100334.00;;;29.72;51.54
47524;BME280;33253;42.144;25.884;2023-08-24T07:52:36;100333.56;;;29.81;48.80
47524;BME280;33253;42.144;25.884;2023-08-24T07:55:02;100331.75;;;29.82;49.95
47524;BME280;33253;42.144;25.884;2023-08-24T07:57:29;100319.81;;;29.72;47.83
47524;BME280;33253;42.144;25.884;2023-08-24T07:59:57;100324.56;;;29.84;48.45
47524;BME280;33253;42.144;25.884;2023-08-24T08:02:22;100298.59;;;29.70;47.60
47524;BME280;33253;42.144;25.884;2023-08-24T08:04:48;100325.56;;;30.02;48.24
47524;BME280;33253;42.144;25.884;2023-08-24T08:07:14;100194.81;;;29.32;48.47
47524;BME280;33253;42.144;25.884;2023-08-24T08:09:39;100308.19;;;29.93;48.29
47524;BME280;33253;42.144;25.884;2023-08-24T08:12:05;100321.81;;;30.06;47.36
47524;BME280;33253;42.144;25.884;2023-08-24T08:14:31;100321.72;;;30.27;45.97
47524;BME280;33253;42.144;25.884;2023-08-24T08:16:56;100301.28;;;30.27;46.03
47524;BME280;33253;42.144;25.884;2023-08-24T08:19:22;100300.78;;;30.38;45.28
47524;BME280;33253;42.144;25.884;2023-08-24T08:21:47;100321.88;;;30.79;48.15
47524;BME280;33253;42.144;25.884;2023-08-24T08:24:13;100302.66;;;30.73;45.48
47524;BME280;33253;42.144;25.884;2023-08-24T08:26:38;100325.81;;;30.90;45.92
47524;BME280;33253;42.144;25.884;2023-08-24T08:29:04;100328.47;;;30.90;45.54
47524;BME280;33253;42.144;25.884;2023-08-24T08:31:30;100315.75;;;30.95;46.71
47524;BME280;33253;42.144;25.884;2023-08-24T08:33:56;100325.66;;;31.10;47.33
47524;BME280;33253;42.144;25.884;2023-08-24T08:36:22;100252.66;;;30.78;44.59
47524;BME280;33253;42.144;25.884;2023-08-24T08:38:47;100306.31;;;31.24;43.52
47524;BME280;33253;42.144;25.884;2023-08-24T08:41:14;100314.66;;;31.52;44.71
47524;BME280;33253;42.144;25.884;2023-08-24T08:43:41;100296.72;;;31.71;42.32
47524;BME280;33253;42.144;25.884;2023-08-24T08:46:06;100306.22;;;31.77;41.81
47524;BME280;33253;42.144;25.884;2023-08-24T08:48:34;100314.94;;;31.97;41.95
47524;BME280;33253;42.144;25.884;2023-08-24T08:51:01;100314.78;;;32.16;42.59
47524;BME280;33253;42.144;25.884;2023-08-24T08:53:28;100301.44;;;32.32;40.70
47524;BME280;33253;42.144;25.884;2023-08-24T08:55:55;100262.56;;;32.10;40.92
47524;BME280;33253;42.144;25.884;2023-08-24T08:58:22;100300.22;;;32.53;40.13
47524;BME280;33253;42.144;25.884;2023-08-24T09:00:49;100299.16;;;32.56;39.86
47524;BME280;33253;42.144;25.884;2023-08-24T09:03:18;100286.94;;;32.52;39.56
47524;BME280;33253;42.144;25.884;2023-08-24T09:05:44;100291.22;;;32.70;39.66
47524;BME280;33253;42.144;25.884;2023-08-24T09:08:17;100283.19;;;32.70;39.66
47524;BME280;33253;42.144;25.884;2023-08-24T09:10:43;100283.81;;;32.76;40.13
47524;BME280;33253;42.144;25.884;2023-08-24T09:13:09;100265.50;;;32.84;39.54
47524;BME280;33253;42.144;25.884;2023-08-24T09:15:36;100267.72;;;32.92;41.60
47524;BME280;33253;42.144;25.884;2023-08-24T09:18:02;100276.44;;;32.95;41.21
47524;BME280;33253;42.144;25.884;2023-08-24T09:20:29;100180.19;;;32.34;45.15
47524;BME280;33253;42.144;25.884;2023-08-24T09:22:57;100275.84;;;32.90;43.68
47524;BME280;33253;42.144;25.884;2023-08-24T09:25:26;100264.84;;;32.80;40.27
47524;BME280;33253;42.144;25.884;2023-08-24T09:28:05;100263.63;;;33.00;38.88
47524;BME280;33253;42.144;25.884;2023-08-24T09:30:31;100259.72;;;33.06;40.00
47524;BME280;33253;42.144;25.884;2023-08-24T09:33:12;100273.25;;;33.33;38.46
47524;BME280;33253;42.144;25.884;2023-08-24T09:35:39;100213.97;;;33.11;37.56
47524;BME280;33253;42.144;25.884;2023-08-24T09:38:17;100265.69;;;33.69;40.44
47524;BME280;33253;42.144;25.884;2023-08-24T09:40:47;100263.28;;;33.79;36.55
47524;BME280;33253;42.144;25.884;2023-08-24T09:43:17;100241.97;;;33.77;39.38
47524;BME280;33253;42.144;25.884;2023-08-24T09:45:54;100238.72;;;33.86;37.03
47524;BME280;33253;42.144;25.884;2023-08-24T09:48:22;100239.91;;;34.10;39.29
47524;BME280;33253;42.144;25.884;2023-08-24T09:50:50;100216.00;;;34.07;36.42
47524;BME280;33253;42.144;25.884;2023-08-24T09:53:18;100220.84;;;34.14;35.60
47524;BME280;33253;42.144;25.884;2023-08-24T09:56:06;100228.97;;;34.13;36.30
47524;BME280;33253;42.144;25.884;2023-08-24T09:58:34;100243.06;;;34.29;35.06
47524;BME280;33253;42.144;25.884;2023-08-24T10:01:01;100240.41;;;34.29;35.20
47524;BME280;33253;42.144;25.884;2023-08-24T10:03:30;100222.47;;;34.44;35.01
47524;BME280;33253;42.144;25.884;2023-08-24T10:05:58;100170.66;;;34.31;34.53
47524;BME280;33253;42.144;25.884;2023-08-24T10:08:53;100228.13;;;34.93;35.76
47524;BME280;33253;42.144;25.884;2023-08-24T10:11:24;100222.69;;;35.07;36.33
47524;BME280;33253;42.144;25.884;2023-08-24T10:14:05;100219.97;;;35.20;34.30
47524;BME280;33253;42.144;25.884;2023-08-24T10:16:41;100210.78;;;35.37;32.29
47524;BME280;33253;42.144;25.884;2023-08-24T10:19:09;100186.91;;;35.33;32.33
47524;BME280;33253;42.144;25.884;2023-08-24T10:21:37;100202.34;;;35.55;36.04
47524;BME280;33253;42.144;25.884;2023-08-24T10:24:03;100206.94;;;35.66;31.68
47524;BME280;33253;42.144;25.884;2023-08-24T10:26:30;100173.13;;;35.63;32.18
47524;BME280;33253;42.144;25.884;2023-08-24T10:28:58;100194.44;;;35.90;31.94
47524;BME280;33253;42.144;25.884;2023-08-24T10:31:24;100194.72;;;35.99;31.18
47524;BME280;33253;42.144;25.884;2023-08-24T10:33:51;100176.16;;;35.95;31.32
47524;BME280;33253;42.144;25.884;2023-08-24T10:36:18;100166.88;;;36.00;31.06
47524;BME280;33253;42.144;25.884;2023-08-24T10:38:44;100183.69;;;35.90;32.72
47524;BME280;33253;42.144;25.884;2023-08-24T10:41:10;100153.00;;;35.69;31.87
47524;BME280;33253;42.144;25.884;2023-08-24T10:43:40;100122.66;;;35.55;33.59
47524;BME280;33253;42.144;25.884;2023-08-24T10:46:13;100184.41;;;35.92;36.91
47524;BME280;33253;42.144;25.884;2023-08-24T10:53:56;100145.47;;;35.50;35.20
47524;BME280;33253;42.144;25.884;2023-08-24T10:56:30;100154.72;;;35.70;36.78
47524;BME280;33253;42.144;25.884;2023-08-24T10:59:11;100138.16;;;35.76;34.51
47524;BME280;33253;42.144;25.884;2023-08-24T11:04:19;100111.41;;;35.99;31.77
47524;BME280;33253;42.144;25.884;2023-08-24T11:09:18;100069.53;;;35.96;32.73
47524;BME280;33253;42.144;25.884;2023-08-24T11:11:58;100127.72;;;36.44;32.89
47524;BME280;33253;42.144;25.884;2023-08-24T11:14:25;100103.28;;;36.47;30.41
47524;BME280;33253;42.144;25.884;2023-08-24T11:17:00;100114.53;;;36.64;36.76
47524;BME280;33253;42.144;25.884;2023-08-24T11:19:27;100067.09;;;36.51;32.82
47524;BME280;33253;42.144;25.884;2023-08-24T11:21:55;100079.56;;;36.75;30.62
47524;BME280;33253;42.144;25.884;2023-08-24T11:24:22;100091.72;;;36.92;29.01
47524;BME280;33253;42.144;25.884;2023-08-24T11:26:49;100078.13;;;36.94;29.90
47524;BME280;33253;42.144;25.884;2023-08-24T11:29:15;100087.81;;;37.07;29.11
47524;BME280;33253;42.144;25.884;2023-08-24T11:31:41;100108.44;;;37.18;29.12
47524;BME280;33253;42.144;25.884;2023-08-24T11:34:06;100073.13;;;37.00;29.12
47524;BME280;33253;42.144;25.884;2023-08-24T11:39:15;100071.00;;;37.38;29.71
47524;BME280;33253;42.144;25.884;2023-08-24T11:41:41;100073.66;;;37.49;29.35
47524;BME280;33253;42.144;25.884;2023-08-24T11:44:07;100079.69;;;37.42;28.04
47524;BME280;33253;42.144;25.884;2023-08-24T11:46:32;100078.59;;;37.21;28.48
47524;BME280;33253;42.144;25.884;2023-08-24T11:48:58;100063.44;;;37.09;28.34
47524;BME280;33253;42.144;25.884;2023-08-24T11:51:24;100068.13;;;36.96;28.46
47524;BME280;33253;42.144;25.884;2023-08-24T11:53:51;100000.38;;;36.79;28.30
47524;BME280;33253;42.144;25.884;2023-08-24T11:56:17;100063.66;;;37.40;28.41
47524;BME280;33253;42.144;25.884;2023-08-24T11:58:48;100047.09;;;37.33;27.81
47524;BME280;33253;42.144;25.884;2023-08-24T12:01:15;100054.00;;;37.37;27.49
47524;BME280;33253;42.144;25.884;2023-08-24T12:03:42;100015.03;;;36.98;27.65
47524;BME280;33253;42.144;25.884;2023-08-24T12:06:15;100047.44;;;37.07;27.52
47524;BME280;33253;42.144;25.884;2023-08-24T12:08:44;100042.91;;;36.97;27.50
47524;BME280;33253;42.144;25.884;2023-08-24T12:11:18;100039.72;;;37.14;27.82
47524;BME280;33253;42.144;25.884;2023-08-24T12:13:51;99984.66;;;37.07;29.12
47524;BME280;33253;42.144;25.884;2023-08-24T12:16:19;100033.81;;;37.64;27.24
47524;BME280;33253;42.144;25.884;2023-08-24T12:21:17;99968.09;;;37.23;29.46
47524;BME280;33253;42.144;25.884;2023-08-24T12:23:45;100004.84;;;37.57;28.27
47524;BME280;33253;42.144;25.884;2023-08-24T12:26:20;100028.81;;;37.81;27.38
47524;BME280;33253;42.144;25.884;2023-08-24T12:28:52;100008.16;;;37.81;27.82
47524;BME280;33253;42.144;25.884;2023-08-24T12:31:18;100016.44;;;37.90;26.79
47524;BME280;33253;42.144;25.884;2023-08-24T12:33:44;99997.44;;;37.70;26.66
47524;BME280;33253;42.144;25.884;2023-08-24T12:36:10;100002.50;;;37.84;29.15
47524;BME280;33253;42.144;25.884;2023-08-24T12:38:35;99999.75;;;37.96;26.71
47524;BME280;33253;42.144;25.884;2023-08-24T12:41:02;100003.69;;;38.13;28.18
47524;BME280;33253;42.144;25.884;2023-08-24T12:43:27;100000.53;;;38.29;26.47
47524;BME280;33253;42.144;25.884;2023-08-24T12:45:53;99980.84;;;38.38;26.12
47524;BME280;33253;42.144;25.884;2023-08-24T12:48:18;99981.28;;;38.43;25.48
47524;BME280;33253;42.144;25.884;2023-08-24T12:50:44;99928.97;;;37.94;26.02
47524;BME280;33253;42.144;25.884;2023-08-24T12:53:09;99977.88;;;38.41;25.86
47524;BME280;33253;42.144;25.884;2023-08-24T12:55:38;99936.25;;;38.03;26.95
47524;BME280;33253;42.144;25.884;2023-08-24T12:58:04;99978.03;;;38.40;27.05
47524;BME280;33253;42.144;25.884;2023-08-24T13:00:29;99974.63;;;38.47;26.03
47524;BME280;33253;42.144;25.884;2023-08-24T13:02:55;99969.72;;;38.62;25.79